createdAt,value
2016-12-14T00:00:41.627Z,50.9
2016-12-14T00:01:41.296Z,50.61
2016-12-14T00:02:41.602Z,50.61
2016-12-14T00:03:41.577Z,50.9
2016-12-14T00:04:41.249Z,50.9
2016-12-14T00:05:41.578Z,50.9
2016-12-14T00:06:41.528Z,50.51
2016-12-14T00:07:41.201Z,50.9
2016-12-14T00:08:41.496Z,50.61
2016-12-14T00:09:41.477Z,50.81
2016-12-14T00:10:41.464Z,50.9
2016-12-14T00:11:41.447Z,50.61
2016-12-14T00:12:41.431Z,50.81
2016-12-14T00:13:41.412Z,50.9
2016-12-14T00:14:41.399Z,50.61
2016-12-14T00:15:41.382Z,50.71
2016-12-14T00:16:41.052Z,50.71
2016-12-14T00:17:41.349Z,50.99
2016-12-14T00:18:41.018Z,50.81
2016-12-14T00:19:41.313Z,50.87
2016-12-14T00:20:40.981Z,51.09
2016-12-14T00:21:41.284Z,50.9
2016-12-14T00:22:40.950Z,51.29
2016-12-14T00:23:41.248Z,51.29
2016-12-14T00:24:40.919Z,51.09
2016-12-14T00:25:41.220Z,51.09
2016-12-14T00:26:41.198Z,50.9
2016-12-14T00:27:40.866Z,50.81
2016-12-14T00:28:40.850Z,51.48
2016-12-14T00:29:41.149Z,50.99
2016-12-14T00:30:41.133Z,51.29
2016-12-14T00:31:41.123Z,51.09
2016-12-14T00:32:41.102Z,51.07
2016-12-14T00:33:41.086Z,51.09
2016-12-14T00:34:41.071Z,51.55
2016-12-14T00:35:41.048Z,51.17
2016-12-14T00:36:41.037Z,51.17
2016-12-14T00:37:41.019Z,51.29
2016-12-14T00:38:40.686Z,51.17
2016-12-14T00:39:40.989Z,51.26
2016-12-14T00:40:40.972Z,51.17
2016-12-14T00:41:40.949Z,51.17
2016-12-14T00:42:40.944Z,51.07
2016-12-14T00:43:40.607Z,51.26
2016-12-14T00:44:40.905Z,51.45
2016-12-14T00:45:40.884Z,51.26
2016-12-14T00:46:40.869Z,51.26
2016-12-14T00:47:40.854Z,51.26
2016-12-14T00:48:40.838Z,51.35
2016-12-14T00:49:40.833Z,51.35
2016-12-14T00:50:40.491Z,51.26
2016-12-14T00:51:40.789Z,51.17
2016-12-14T00:52:40.774Z,51.17
2016-12-14T00:53:40.755Z,51.07
2016-12-14T00:54:40.745Z,51.07
2016-12-14T00:55:40.723Z,51.17
2016-12-14T00:56:40.707Z,51.35
2016-12-14T00:57:40.693Z,51.26
2016-12-14T00:58:40.674Z,51.07
2016-12-14T00:59:40.655Z,50.97
2016-12-14T01:00:40.638Z,51.35
2016-12-14T01:01:40.304Z,51.07
2016-12-14T01:02:40.607Z,51.17
2016-12-14T01:03:40.590Z,51.26
2016-12-14T01:04:40.573Z,51.17
2016-12-14T01:05:40.238Z,51.26
2016-12-14T01:06:40.224Z,51.26
2016-12-14T01:07:40.532Z,51.07
2016-12-14T01:08:40.504Z,51.17
2016-12-14T01:09:40.491Z,50.97
2016-12-14T01:10:40.476Z,50.97
2016-12-14T01:11:40.459Z,51.64
2016-12-14T01:12:40.451Z,51.64
2016-12-14T01:13:40.425Z,52.03
2016-12-14T01:14:40.411Z,52.12
2016-12-14T01:15:40.392Z,51.74
2016-12-14T01:16:40.381Z,51.93
2016-12-14T01:17:40.359Z,51.84
2016-12-14T01:18:40.342Z,51.84
2016-12-14T01:19:40.330Z,51.84
2016-12-14T01:20:40.311Z,51.74
2016-12-14T01:21:40.293Z,51.84
2016-12-14T01:22:40.281Z,51.93
2016-12-14T01:23:40.260Z,51.74
2016-12-14T01:24:40.242Z,51.74
2016-12-14T01:25:40.231Z,51.74
2016-12-14T01:26:40.214Z,51.93
2016-12-14T01:27:40.193Z,51.84
2016-12-14T01:28:40.178Z,51.74
2016-12-14T01:29:40.156Z,51.74
2016-12-14T01:30:40.147Z,51.64
2016-12-14T01:31:40.128Z,51.93
2016-12-14T01:32:40.116Z,51.74
2016-12-14T01:33:40.095Z,51.84
2016-12-14T01:34:39.762Z,51.74
2016-12-14T01:35:40.065Z,51.35
2016-12-14T01:36:39.727Z,51.74
2016-12-14T01:37:40.030Z,51.64
2016-12-14T01:38:40.011Z,51.45
2016-12-14T01:39:39.996Z,51.84
2016-12-14T01:40:39.976Z,51.84
2016-12-14T01:41:39.963Z,51.74
2016-12-14T01:42:39.950Z,51.84
2016-12-14T01:43:39.612Z,51.55
2016-12-14T01:44:39.597Z,51.74
2016-12-14T01:45:39.894Z,51.84
2016-12-14T01:46:39.902Z,51.64
2016-12-14T01:47:39.859Z,52.03
2016-12-14T01:48:39.843Z,52.03
2016-12-14T01:49:39.829Z,51.74
2016-12-14T01:50:39.812Z,52.03
2016-12-14T01:51:39.792Z,51.84
2016-12-14T01:52:39.783Z,51.93
2016-12-14T01:53:39.448Z,51.64
2016-12-14T01:54:39.742Z,51.84
2016-12-14T01:55:39.727Z,51.55
2016-12-14T01:56:39.717Z,52.12
2016-12-14T01:57:39.695Z,51.64
2016-12-14T01:58:39.676Z,51.84
2016-12-14T01:59:39.665Z,52.12
2016-12-14T02:00:39.646Z,52.12
2016-12-14T02:01:39.628Z,52.03
2016-12-14T02:02:39.613Z,52.12
2016-12-14T02:03:39.596Z,51.93
2016-12-14T02:04:39.579Z,52.7
2016-12-14T02:05:39.562Z,52.32
2016-12-14T02:06:39.544Z,52.32
2016-12-14T02:07:39.531Z,52.03
2016-12-14T02:08:39.513Z,52.12
2016-12-14T02:09:39.184Z,52.32
2016-12-14T02:10:39.483Z,52.22
2016-12-14T02:11:39.465Z,52.12
2016-12-14T02:12:39.127Z,52.61
2016-12-14T02:13:39.428Z,52.12
2016-12-14T02:14:39.098Z,52.61
2016-12-14T02:15:39.401Z,52.22
2016-12-14T02:16:39.378Z,52.12
2016-12-14T02:17:39.365Z,52.22
2016-12-14T02:18:39.343Z,52.03
2016-12-14T02:19:39.332Z,52.42
2016-12-14T02:20:39.311Z,52.42
2016-12-14T02:21:39.294Z,52.61
2016-12-14T02:22:39.281Z,52.42
2016-12-14T02:23:39.263Z,52.12
2016-12-14T02:24:39.244Z,52.7
2016-12-14T02:25:39.229Z,52.51
2016-12-14T02:26:39.222Z,52.7
2016-12-14T02:27:39.195Z,52.8
2016-12-14T02:28:39.183Z,52.8
2016-12-14T02:29:38.850Z,52.61
2016-12-14T02:30:39.155Z,52.61
2016-12-14T02:31:39.130Z,52.7
2016-12-14T02:32:39.114Z,52.51
2016-12-14T02:33:38.779Z,52.51
2016-12-14T02:34:39.080Z,52.7
2016-12-14T02:35:39.060Z,52.7
2016-12-14T02:36:39.047Z,52.7
2016-12-14T02:37:39.029Z,52.61
2016-12-14T02:38:39.009Z,52.61
2016-12-14T02:39:38.679Z,52.51
2016-12-14T02:40:38.983Z,52.61
2016-12-14T02:41:38.961Z,52.61
2016-12-14T02:42:38.944Z,52.7
2016-12-14T02:43:38.931Z,52.51
2016-12-14T02:44:38.917Z,52.7
2016-12-14T02:45:38.896Z,52.51
2016-12-14T02:46:38.559Z,52.61
2016-12-14T02:47:38.862Z,52.7
2016-12-14T02:48:38.845Z,52.8
2016-12-14T02:49:38.827Z,52.8
2016-12-14T02:50:38.812Z,52.61
2016-12-14T02:51:38.796Z,52.7
2016-12-14T02:52:38.464Z,52.61
2016-12-14T02:53:38.765Z,52.8
2016-12-14T02:54:38.745Z,52.61
2016-12-14T02:55:38.732Z,52.8
2016-12-14T02:56:38.719Z,52.8
2016-12-14T02:57:38.700Z,52.51
2016-12-14T02:58:38.684Z,52.8
2016-12-14T02:59:38.663Z,52.7
2016-12-14T03:00:38.658Z,52.42
2016-12-14T03:01:38.629Z,52.51
2016-12-14T03:02:38.619Z,52.51
2016-12-14T03:03:38.598Z,52.51
2016-12-14T03:04:38.581Z,52.51
2016-12-14T03:05:38.250Z,52.51
2016-12-14T03:06:38.547Z,52.32
2016-12-14T03:07:38.529Z,52.42
2016-12-14T03:08:38.514Z,52.42
2016-12-14T03:09:38.499Z,52.42
2016-12-14T03:10:38.166Z,52.61
2016-12-14T03:11:38.475Z,52.51
2016-12-14T03:12:38.450Z,52.32
2016-12-14T03:13:38.431Z,52.51
2016-12-14T03:14:38.097Z,52.61
2016-12-14T03:15:38.393Z,52.99
2016-12-14T03:16:38.380Z,52.89
2016-12-14T03:17:38.363Z,52.8
2016-12-14T03:18:38.348Z,52.51
2016-12-14T03:19:38.053Z,52.42
2016-12-14T03:20:38.317Z,52.51
2016-12-14T03:21:38.298Z,52.39
2016-12-14T03:22:38.281Z,52.42
2016-12-14T03:23:38.261Z,52.51
2016-12-14T03:24:38.244Z,53.09
2016-12-14T03:25:38.231Z,52.99
2016-12-14T03:26:38.212Z,52.61
2016-12-14T03:27:38.201Z,52.89
2016-12-14T03:28:38.181Z,52.89
2016-12-14T03:29:38.162Z,52.51
2016-12-14T03:30:38.153Z,52.32
2016-12-14T03:31:38.135Z,52.29
2016-12-14T03:32:38.114Z,52.99
2016-12-14T03:33:38.097Z,53.06
2016-12-14T03:34:38.080Z,53.09
2016-12-14T03:35:38.061Z,52.32
2016-12-14T03:36:38.045Z,52.8
2016-12-14T03:37:38.033Z,52.89
2016-12-14T03:38:38.017Z,53.09
2016-12-14T03:39:37.677Z,52.89
2016-12-14T03:40:37.977Z,53.19
2016-12-14T03:41:37.963Z,53.57
2016-12-14T03:42:37.628Z,53.09
2016-12-14T03:43:37.942Z,52.8
2016-12-14T03:44:37.911Z,53.38
2016-12-14T03:45:37.897Z,53.09
2016-12-14T03:46:37.877Z,52.89
2016-12-14T03:47:37.546Z,52.99
2016-12-14T03:48:37.529Z,53.19
2016-12-14T03:49:37.827Z,52.89
2016-12-14T03:50:37.806Z,52.8
2016-12-14T03:51:37.795Z,52.89
2016-12-14T03:52:37.780Z,52.8
2016-12-14T03:53:37.764Z,53.09
2016-12-14T03:54:37.745Z,52.8
2016-12-14T03:55:37.416Z,52.99
2016-12-14T03:56:37.399Z,52.8
2016-12-14T03:57:37.696Z,52.89
2016-12-14T03:58:37.362Z,52.89
2016-12-14T03:59:37.659Z,52.89
2016-12-14T04:00:37.646Z,52.99
2016-12-14T04:01:37.631Z,53.09
2016-12-14T04:02:37.294Z,52.99
2016-12-14T04:03:37.278Z,53.09
2016-12-14T04:04:37.579Z,52.89
2016-12-14T04:05:37.564Z,52.87
2016-12-14T04:06:37.545Z,52.89
2016-12-14T04:07:37.526Z,52.99
2016-12-14T04:08:37.192Z,52.89
2016-12-14T04:09:37.178Z,53.09
2016-12-14T04:10:37.482Z,52.89
2016-12-14T04:11:37.460Z,52.99
2016-12-14T04:12:37.449Z,52.89
2016-12-14T04:13:37.426Z,52.89
2016-12-14T04:14:37.417Z,52.89
2016-12-14T04:15:37.396Z,52.7
2016-12-14T04:16:37.377Z,52.99
2016-12-14T04:17:37.366Z,52.97
2016-12-14T04:18:37.343Z,52.97
2016-12-14T04:19:37.013Z,52.89
2016-12-14T04:20:37.308Z,52.89
2016-12-14T04:21:37.295Z,52.8
2016-12-14T04:22:37.276Z,52.7
2016-12-14T04:23:37.261Z,53.09
2016-12-14T04:24:37.241Z,52.99
2016-12-14T04:25:37.228Z,53.09
2016-12-14T04:26:37.213Z,52.99
2016-12-14T04:27:36.884Z,52.8
2016-12-14T04:28:37.179Z,53.47
2016-12-14T04:29:37.159Z,53.19
2016-12-14T04:30:37.145Z,52.87
2016-12-14T04:31:36.813Z,52.99
2016-12-14T04:32:37.113Z,52.7
2016-12-14T04:33:36.779Z,53.16
2016-12-14T04:34:37.077Z,52.8
2016-12-14T04:35:36.744Z,52.99
2016-12-14T04:36:37.045Z,53.19
2016-12-14T04:37:37.026Z,53.09
2016-12-14T04:38:36.696Z,53.54
2016-12-14T04:39:36.990Z,53.54
2016-12-14T04:40:36.976Z,53.54
2016-12-14T04:41:36.961Z,52.97
2016-12-14T04:42:36.946Z,53.28
2016-12-14T04:43:36.611Z,53.47
2016-12-14T04:44:36.910Z,53.66
2016-12-14T04:45:36.576Z,53.47
2016-12-14T04:46:36.875Z,53.57
2016-12-14T04:47:36.859Z,53.45
2016-12-14T04:48:36.534Z,53.25
2016-12-14T04:49:36.823Z,53.35
2016-12-14T04:50:36.818Z,53.35
2016-12-14T04:51:36.793Z,53.45
2016-12-14T04:52:36.774Z,53.16
2016-12-14T04:53:36.761Z,53.25
2016-12-14T04:54:36.744Z,53.16
2016-12-14T04:55:36.726Z,53.25
2016-12-14T04:56:36.709Z,53.35
2016-12-14T04:57:36.690Z,53.38
2016-12-14T04:58:36.685Z,53.25
2016-12-14T04:59:36.655Z,53.06
2016-12-14T05:00:36.644Z,53.06
2016-12-14T05:01:36.623Z,53.45
2016-12-14T05:02:36.612Z,53.74
2016-12-14T05:03:36.622Z,53.45
2016-12-14T05:04:36.593Z,53.35
2016-12-14T05:05:36.559Z,53.54
2016-12-14T05:06:36.541Z,53.47
2016-12-14T05:07:36.525Z,53.57
2016-12-14T05:08:36.511Z,52.8
2016-12-14T05:09:36.495Z,53.09
2016-12-14T05:10:36.473Z,52.61
2016-12-14T05:11:36.141Z,52.61
2016-12-14T05:12:36.438Z,52.89
2016-12-14T05:13:36.430Z,52.32
2016-12-14T05:14:36.090Z,52.25
2016-12-14T05:15:36.394Z,52.06
2016-12-14T05:16:36.375Z,52.15
2016-12-14T05:17:36.046Z,51.86
2016-12-14T05:18:36.339Z,51.86
2016-12-14T05:19:36.322Z,51.96
2016-12-14T05:20:36.307Z,51.86
2016-12-14T05:21:36.293Z,51.67
2016-12-14T05:22:36.274Z,51.86
2016-12-14T05:23:36.267Z,51.86
2016-12-14T05:24:36.241Z,51.76
2016-12-14T05:25:36.227Z,51.76
2016-12-14T05:26:36.208Z,51.86
2016-12-14T05:27:36.194Z,51.86
2016-12-14T05:28:36.175Z,51.76
2016-12-14T05:29:36.156Z,51.76
2016-12-14T05:30:36.139Z,51.76
2016-12-14T05:31:36.123Z,51.76
2016-12-14T05:32:35.792Z,51.57
2016-12-14T05:33:36.089Z,51.86
2016-12-14T05:34:36.079Z,51.38
2016-12-14T05:35:36.059Z,51.89
2016-12-14T05:36:36.051Z,51.76
2016-12-14T05:37:35.708Z,51.86
2016-12-14T05:38:36.009Z,51.86
2016-12-14T05:39:35.990Z,51.48
2016-12-14T05:40:35.975Z,51.86
2016-12-14T05:41:35.959Z,51.57
2016-12-14T05:42:35.634Z,51.57
2016-12-14T05:43:35.929Z,51.96
2016-12-14T05:44:35.908Z,51.67
2016-12-14T05:45:35.895Z,51.67
2016-12-14T05:46:35.873Z,51.67
2016-12-14T05:47:35.862Z,51.57
2016-12-14T05:48:35.843Z,52.08
2016-12-14T05:49:35.509Z,51.96
2016-12-14T05:50:35.810Z,51.38
2016-12-14T05:51:35.796Z,51.89
2016-12-14T05:52:35.772Z,51.67
2016-12-14T05:53:35.445Z,51.96
2016-12-14T05:54:35.425Z,51.7
2016-12-14T05:55:35.756Z,51.67
2016-12-14T05:56:35.715Z,51.76
2016-12-14T05:57:35.692Z,51.76
2016-12-14T05:58:35.679Z,51.48
2016-12-14T05:59:35.346Z,51.76
2016-12-14T06:00:35.644Z,51.96
2016-12-14T06:01:35.629Z,51.86
2016-12-14T06:02:35.612Z,51.86
2016-12-14T06:03:35.601Z,52.18
2016-12-14T06:04:35.579Z,51.86
2016-12-14T06:05:35.566Z,51.86
2016-12-14T06:06:35.545Z,51.96
2016-12-14T06:07:35.212Z,51.96
2016-12-14T06:08:35.196Z,51.48
2016-12-14T06:09:35.500Z,51.19
2016-12-14T06:10:35.480Z,51.48
2016-12-14T06:11:35.467Z,50.99
2016-12-14T06:12:35.450Z,51.29
2016-12-14T06:13:35.430Z,50.93
2016-12-14T06:14:35.419Z,50.45
2016-12-14T06:15:35.398Z,50.42
2016-12-14T06:16:35.387Z,50.06
2016-12-14T06:17:35.077Z,50.63
2016-12-14T06:18:35.352Z,50.51
2016-12-14T06:19:35.019Z,50.61
2016-12-14T06:20:35.328Z,50.42
2016-12-14T06:21:34.995Z,50.71
2016-12-14T06:22:35.284Z,50.71
2016-12-14T06:23:34.955Z,50.63
2016-12-14T06:24:35.254Z,50.45
2016-12-14T06:25:34.918Z,50.35
2016-12-14T06:26:35.217Z,50.25
2016-12-14T06:27:35.201Z,50.25
2016-12-14T06:28:35.187Z,50.35
2016-12-14T06:29:35.168Z,50.45
2016-12-14T06:30:35.152Z,50.25
2016-12-14T06:31:35.135Z,50.15
2016-12-14T06:32:35.121Z,50.45
2016-12-14T06:33:35.105Z,50.54
2016-12-14T06:34:35.088Z,50.45
2016-12-14T06:35:35.072Z,50.73
2016-12-14T06:36:34.742Z,50.83
2016-12-14T06:37:35.036Z,50.63
2016-12-14T06:38:35.023Z,50.54
2016-12-14T06:39:35.033Z,50.45
2016-12-14T06:40:34.996Z,50.63
2016-12-14T06:41:34.971Z,50.25
2016-12-14T06:42:34.960Z,50.54
2016-12-14T06:43:34.942Z,50.83
2016-12-14T06:44:34.925Z,50.45
2016-12-14T06:45:34.910Z,50.54
2016-12-14T06:46:34.895Z,50.54
2016-12-14T06:47:34.875Z,50.35
2016-12-14T06:48:34.860Z,50.35
2016-12-14T06:49:34.849Z,50.15
2016-12-14T06:50:34.825Z,50.54
2016-12-14T06:51:34.809Z,50.35
2016-12-14T06:52:34.794Z,50.54
2016-12-14T06:53:34.781Z,50.35
2016-12-14T06:54:34.762Z,50.45
2016-12-14T06:55:34.426Z,50.35
2016-12-14T06:56:34.733Z,50.63
2016-12-14T06:57:34.717Z,50.73
2016-12-14T06:58:34.691Z,50.73
2016-12-14T06:59:34.679Z,50.45
2016-12-14T07:00:34.660Z,50.45
2016-12-14T07:01:34.648Z,50.54
2016-12-14T07:02:34.314Z,50.73
2016-12-14T07:03:34.315Z,50.73
2016-12-14T07:04:34.601Z,50.83
2016-12-14T07:05:34.580Z,50.83
2016-12-14T07:06:34.568Z,50.83
2016-12-14T07:07:34.554Z,50.83
2016-12-14T07:08:34.532Z,50.83
2016-12-14T07:09:34.210Z,50.54
2016-12-14T07:10:34.500Z,50.83
2016-12-14T07:11:34.495Z,50.83
2016-12-14T07:12:34.467Z,50.73
2016-12-14T07:13:34.450Z,50.93
2016-12-14T07:14:34.435Z,50.83
2016-12-14T07:15:34.416Z,50.73
2016-12-14T07:16:34.401Z,50.83
2016-12-14T07:17:34.385Z,50.83
2016-12-14T07:18:34.372Z,50.73
2016-12-14T07:19:34.353Z,50.83
2016-12-14T07:20:34.390Z,50.83
2016-12-14T07:21:34.320Z,50.63
2016-12-14T07:22:34.303Z,50.93
2016-12-14T07:23:34.288Z,50.73
2016-12-14T07:24:34.271Z,51.02
2016-12-14T07:25:34.255Z,50.83
2016-12-14T07:26:34.251Z,50.83
2016-12-14T07:27:34.221Z,50.83
2016-12-14T07:28:34.204Z,50.63
2016-12-14T07:29:34.196Z,50.35
2016-12-14T07:30:34.174Z,50.35
2016-12-14T07:31:34.187Z,50.76
2016-12-14T07:32:34.141Z,50.35
2016-12-14T07:33:34.124Z,50.35
2016-12-14T07:34:34.105Z,50.66
2016-12-14T07:35:34.117Z,50.47
2016-12-14T07:36:34.110Z,50.63
2016-12-14T07:37:33.745Z,50.83
2016-12-14T07:38:34.049Z,50.57
2016-12-14T07:39:34.034Z,50.54
2016-12-14T07:40:34.068Z,50.63
2016-12-14T07:41:33.995Z,50.85
2016-12-14T07:42:33.665Z,50.85
2016-12-14T07:43:33.964Z,50.93
2016-12-14T07:44:33.631Z,50.83
2016-12-14T07:45:33.931Z,50.93
2016-12-14T07:46:33.918Z,50.85
2016-12-14T07:47:33.901Z,50.83
2016-12-14T07:48:33.883Z,50.83
2016-12-14T07:49:33.867Z,50.83
2016-12-14T07:50:33.852Z,50.37
2016-12-14T07:51:33.836Z,50.93
2016-12-14T07:52:33.503Z,50.83
2016-12-14T07:53:33.807Z,50.85
2016-12-14T07:54:33.790Z,50.63
2016-12-14T07:55:33.769Z,50.85
2016-12-14T07:56:33.754Z,50.47
2016-12-14T07:57:33.745Z,50.95
2016-12-14T07:58:33.720Z,50.95
2016-12-14T07:59:33.702Z,50.95
2016-12-14T08:00:33.379Z,50.93
2016-12-14T08:01:33.361Z,51.31
2016-12-14T08:02:33.657Z,51.05
2016-12-14T08:03:33.640Z,51.12
2016-12-14T08:04:33.628Z,51.02
2016-12-14T08:05:33.611Z,50.54
2016-12-14T08:06:33.604Z,50.93
2016-12-14T08:07:33.576Z,50.83
2016-12-14T08:08:33.557Z,50.66
2016-12-14T08:09:33.542Z,50.73
2016-12-14T08:10:33.530Z,50.57
2016-12-14T08:11:33.513Z,50.85
2016-12-14T08:12:33.494Z,50.76
2016-12-14T08:13:33.533Z,50.57
2016-12-14T08:14:33.464Z,50.83
2016-12-14T08:15:33.444Z,50.76
2016-12-14T08:16:33.431Z,50.66
2016-12-14T08:17:33.101Z,50.66
2016-12-14T08:18:33.407Z,50.45
2016-12-14T08:19:33.066Z,50.47
2016-12-14T08:20:33.366Z,50.76
2016-12-14T08:21:33.350Z,50.95
2016-12-14T08:22:33.015Z,50.93
2016-12-14T08:23:33.316Z,50.47
2016-12-14T08:24:32.993Z,50.66
2016-12-14T08:25:33.284Z,50.63
2016-12-14T08:26:33.267Z,50.73
2016-12-14T08:27:33.260Z,50.54
2016-12-14T08:28:33.238Z,50.66
2016-12-14T08:29:33.221Z,50.76
2016-12-14T08:30:32.888Z,50.83
2016-12-14T08:31:32.877Z,50.57
2016-12-14T08:32:33.170Z,50.93
2016-12-14T08:33:33.156Z,50.57
2016-12-14T08:34:33.139Z,50.83
2016-12-14T08:35:33.122Z,50.83
2016-12-14T08:36:33.102Z,50.66
2016-12-14T08:37:32.775Z,50.47
2016-12-14T08:38:33.076Z,50.63
2016-12-14T08:39:33.063Z,50.37
2016-12-14T08:40:33.042Z,50.57
2016-12-14T08:41:33.027Z,50.37
2016-12-14T08:42:33.011Z,50.37
2016-12-14T08:43:32.994Z,50.57
2016-12-14T08:44:32.977Z,50.57
2016-12-14T08:45:32.964Z,50.37
2016-12-14T08:46:32.944Z,50.57
2016-12-14T08:47:32.615Z,50.57
2016-12-14T08:48:32.910Z,50.57
2016-12-14T08:49:32.903Z,50.57
2016-12-14T08:50:32.880Z,50.57
2016-12-14T08:51:32.866Z,50.66
2016-12-14T08:52:32.534Z,50.57
2016-12-14T08:53:32.834Z,50.66
2016-12-14T08:54:32.815Z,50.76
2016-12-14T08:55:32.483Z,50.66
2016-12-14T08:56:32.787Z,50.95
2016-12-14T08:57:32.797Z,50.95
2016-12-14T08:58:32.751Z,50.57
2016-12-14T08:59:32.739Z,50.76
2016-12-14T09:00:32.723Z,50.76
2016-12-14T09:01:32.705Z,50.76
2016-12-14T09:02:32.689Z,50.63
2016-12-14T09:03:32.682Z,50.95
2016-12-14T09:04:32.340Z,51.12
2016-12-14T09:05:32.641Z,51.82
2016-12-14T09:06:32.634Z,51.24
2016-12-14T09:07:32.620Z,51.05
2016-12-14T09:08:32.593Z,51.24
2016-12-14T09:09:32.587Z,50.66
2016-12-14T09:10:32.560Z,50.83
2016-12-14T09:11:32.547Z,51.14
2016-12-14T09:12:32.527Z,50.95
2016-12-14T09:13:32.511Z,50.57
2016-12-14T09:14:32.496Z,50.95
2016-12-14T09:15:32.487Z,50.95
2016-12-14T09:16:32.460Z,50.95
2016-12-14T09:17:32.453Z,50.95
2016-12-14T09:18:34.981Z,50.66
2016-12-14T09:19:32.414Z,50.85
2016-12-14T09:20:32.397Z,51.05
2016-12-14T09:21:32.384Z,50.95
2016-12-14T09:22:32.372Z,50.95
2016-12-14T09:23:32.347Z,50.76
2016-12-14T09:24:32.336Z,50.57
2016-12-14T09:25:32.316Z,50.95
2016-12-14T09:26:31.989Z,50.76
2016-12-14T09:27:32.287Z,50.37
2016-12-14T09:28:32.271Z,51.14
2016-12-14T09:29:31.936Z,50.76
2016-12-14T09:30:32.238Z,49.79
2016-12-14T09:31:32.226Z,51.76
2016-12-14T09:32:32.204Z,54.47
2016-12-14T09:33:32.193Z,54.55
2016-12-14T09:34:32.172Z,54.33
2016-12-14T09:35:32.213Z,54.16
2016-12-14T09:36:32.147Z,53.32
2016-12-14T09:37:32.128Z,52.58
2016-12-14T09:38:31.791Z,51.93
2016-12-14T09:39:32.495Z,51.74
2016-12-14T09:40:32.072Z,51.38
2016-12-14T09:41:32.061Z,51.09
2016-12-14T09:42:32.050Z,50.61
2016-12-14T09:43:32.027Z,50.32
2016-12-14T09:44:32.012Z,50.23
2016-12-14T09:45:31.995Z,50.73
2016-12-14T09:46:31.979Z,50.73
2016-12-14T09:47:31.966Z,50.63
2016-12-14T09:48:31.947Z,50.35
2016-12-14T09:49:31.929Z,50.63
2016-12-14T09:50:31.912Z,50.45
2016-12-14T09:51:31.897Z,50.54
2016-12-14T09:52:31.920Z,50.63
2016-12-14T09:53:31.866Z,50.25
2016-12-14T09:54:31.534Z,50.83
2016-12-14T09:55:31.830Z,50.25
2016-12-14T09:56:31.501Z,50.73
2016-12-14T09:57:31.805Z,50.73
2016-12-14T09:58:31.786Z,50.45
2016-12-14T09:59:31.772Z,50.63
2016-12-14T10:00:31.440Z,50.45
2016-12-14T10:01:31.736Z,50.45
2016-12-14T10:02:31.717Z,49.87
2016-12-14T10:03:31.704Z,50.45
2016-12-14T10:04:31.686Z,50.63
2016-12-14T10:05:31.380Z,50.63
2016-12-14T10:06:31.338Z,50.25
2016-12-14T10:07:31.635Z,50.83
2016-12-14T10:08:31.628Z,49.87
2016-12-14T10:09:31.614Z,50.25
2016-12-14T10:10:31.277Z,50.27
2016-12-14T10:11:31.574Z,50.09
2016-12-14T10:12:31.555Z,49.87
2016-12-14T10:13:31.539Z,49.99
2016-12-14T10:14:31.527Z,49.89
2016-12-14T10:15:31.509Z,50.15
2016-12-14T10:16:31.500Z,49.99
2016-12-14T10:17:31.479Z,50.25
2016-12-14T10:18:31.457Z,50.18
2016-12-14T10:19:31.446Z,50.09
2016-12-14T10:20:31.427Z,50.37
2016-12-14T10:21:31.410Z,50.15
2016-12-14T10:22:31.394Z,50.06
2016-12-14T10:23:31.381Z,50.15
2016-12-14T10:24:31.364Z,50.25
2016-12-14T10:25:31.353Z,50.63
2016-12-14T10:26:31.338Z,50.63
2016-12-14T10:27:31.314Z,50.35
2016-12-14T10:28:31.297Z,50.35
2016-12-14T10:29:31.292Z,50.45
2016-12-14T10:30:31.266Z,50.47
2016-12-14T10:31:31.256Z,50.63
2016-12-14T10:32:31.253Z,50.35
2016-12-14T10:33:31.219Z,50.45
2016-12-14T10:34:31.202Z,50.45
2016-12-14T10:35:31.190Z,50.35
2016-12-14T10:36:31.179Z,50.63
2016-12-14T10:37:31.153Z,50.63
2016-12-14T10:38:31.144Z,50.45
2016-12-14T10:39:31.125Z,50.35
2016-12-14T10:40:30.785Z,50.47
2016-12-14T10:41:30.776Z,50.47
2016-12-14T10:42:31.081Z,50.35
2016-12-14T10:43:31.066Z,50.66
2016-12-14T10:44:31.042Z,50.37
2016-12-14T10:45:31.022Z,50.27
2016-12-14T10:46:31.010Z,50.37
2016-12-14T10:47:30.995Z,50.15
2016-12-14T10:48:30.979Z,50.25
2016-12-14T10:49:30.964Z,50.47
2016-12-14T10:50:30.947Z,50.35
2016-12-14T10:51:30.927Z,50.15
2016-12-14T10:52:30.603Z,50.45
2016-12-14T10:53:30.582Z,50.54
2016-12-14T10:54:30.886Z,50.57
2016-12-14T10:55:30.548Z,50.45
2016-12-14T10:56:30.850Z,50.47
2016-12-14T10:57:30.835Z,50.63
2016-12-14T10:58:30.820Z,50.54
2016-12-14T10:59:30.851Z,50.37
2016-12-14T11:00:30.784Z,50.37
2016-12-14T11:01:30.772Z,50.35
2016-12-14T11:02:30.755Z,50.35
2016-12-14T11:03:30.739Z,50.37
2016-12-14T11:04:30.720Z,50.54
2016-12-14T11:05:30.705Z,49.48
2016-12-14T11:06:30.692Z,51.26
2016-12-14T11:07:30.675Z,52.77
2016-12-14T11:08:30.660Z,52.68
2016-12-14T11:09:30.639Z,51.81
2016-12-14T11:10:30.625Z,51.26
2016-12-14T11:11:30.609Z,50.3
2016-12-14T11:12:30.593Z,50.42
2016-12-14T11:13:30.578Z,50.61
2016-12-14T11:14:30.561Z,50.25
2016-12-14T11:15:30.544Z,50.45
2016-12-14T11:16:30.532Z,50.63
2016-12-14T11:17:30.195Z,50.45
2016-12-14T11:18:30.498Z,50.45
2016-12-14T11:19:30.481Z,50.25
2016-12-14T11:20:30.143Z,50.06
2016-12-14T11:21:30.131Z,50.06
2016-12-14T11:22:30.432Z,50.06
2016-12-14T11:23:30.412Z,50.25
2016-12-14T11:24:30.401Z,50.15
2016-12-14T11:25:30.380Z,50.25
2016-12-14T11:26:30.368Z,50.45
2016-12-14T11:27:30.350Z,50.35
2016-12-14T11:28:30.334Z,50.54
2016-12-14T11:29:30.320Z,50.54
2016-12-14T11:30:30.334Z,50.35
2016-12-14T11:31:30.285Z,50.45
2016-12-14T11:32:30.277Z,50.54
2016-12-14T11:33:30.254Z,50.45
2016-12-14T11:34:30.237Z,50.35
2016-12-14T11:35:30.219Z,50.45
2016-12-14T11:36:29.887Z,50.35
2016-12-14T11:37:30.189Z,50.45
2016-12-14T11:38:30.168Z,50.54
2016-12-14T11:39:30.159Z,50.63
2016-12-14T11:40:30.140Z,50.35
2016-12-14T11:41:30.127Z,50.45
2016-12-14T11:42:29.792Z,50.35
2016-12-14T11:43:30.192Z,50.63
2016-12-14T11:44:29.758Z,50.25
2016-12-14T11:45:30.059Z,50.37
2016-12-14T11:46:30.041Z,50.06
2016-12-14T11:47:29.720Z,50.35
2016-12-14T11:48:32.440Z,50.27
2016-12-14T11:49:29.993Z,50.27
2016-12-14T11:50:29.982Z,50.15
2016-12-14T11:51:29.976Z,49.87
2016-12-14T11:52:29.630Z,50.63
2016-12-14T11:53:29.937Z,50.35
2016-12-14T11:54:29.603Z,50.18
2016-12-14T11:55:29.897Z,50.76
2016-12-14T11:56:29.879Z,50.54
2016-12-14T11:57:29.864Z,50.35
2016-12-14T11:58:29.859Z,50.54
2016-12-14T11:59:29.838Z,50.45
2016-12-14T12:00:29.820Z,50.54
2016-12-14T12:01:29.483Z,50.37
2016-12-14T12:02:29.788Z,50.54
2016-12-14T12:03:29.775Z,50.09
2016-12-14T12:04:29.753Z,50.35
2016-12-14T12:05:29.740Z,50.37
2016-12-14T12:06:29.717Z,50.15
2016-12-14T12:07:29.704Z,50.15
2016-12-14T12:08:29.688Z,49.89
2016-12-14T12:09:29.671Z,50.18
2016-12-14T12:10:29.658Z,49.99
2016-12-14T12:11:29.639Z,50.15
2016-12-14T12:12:29.624Z,50.06
2016-12-14T12:13:29.639Z,49.87
2016-12-14T12:14:29.594Z,49.79
2016-12-14T12:15:29.580Z,49.79
2016-12-14T12:16:29.565Z,50.25
2016-12-14T12:17:29.567Z,49.96
2016-12-14T12:18:29.213Z,49.99
2016-12-14T12:19:29.513Z,50.27
2016-12-14T12:20:29.180Z,50.18
2016-12-14T12:21:29.485Z,50.09
2016-12-14T12:22:29.152Z,50.63
2016-12-14T12:23:29.449Z,50.66
2016-12-14T12:24:29.441Z,50.54
2016-12-14T12:25:29.107Z,50.66
2016-12-14T12:26:29.451Z,50.09
2016-12-14T12:27:29.382Z,50.57
2016-12-14T12:28:29.367Z,50.76
2016-12-14T12:29:29.361Z,50.66
2016-12-14T12:30:29.336Z,50.45
2016-12-14T12:31:29.319Z,50.37
2016-12-14T12:32:29.304Z,50.76
2016-12-14T12:33:29.291Z,50.63
2016-12-14T12:34:29.269Z,50.76
2016-12-14T12:35:29.254Z,50.37
2016-12-14T12:36:29.235Z,50.76
2016-12-14T12:37:29.230Z,50.57
2016-12-14T12:38:29.208Z,50.66
2016-12-14T12:39:29.191Z,50.45
2016-12-14T12:40:29.172Z,50.45
2016-12-14T12:41:28.841Z,50.57
2016-12-14T12:42:28.827Z,50.63
2016-12-14T12:43:29.126Z,50.45
2016-12-14T12:44:29.109Z,50.66
2016-12-14T12:45:29.094Z,50.47
2016-12-14T12:46:29.077Z,50.66
2016-12-14T12:47:28.747Z,50.47
2016-12-14T12:48:28.730Z,50.27
2016-12-14T12:49:29.027Z,50.76
2016-12-14T12:50:29.010Z,50.15
2016-12-14T12:51:29.003Z,50.09
2016-12-14T12:52:28.979Z,50.27
2016-12-14T12:53:28.962Z,50.37
2016-12-14T12:54:28.641Z,50.37